SBI4101 UWWW-ULMM
Flight info
| Callsign | SBI4101 |
|---|---|
| Flight time | 2h 46m |
| Altitude | 36000 |
| Route | ODRU7G ODRUT T793 ALOPU T822 LOPRA LOPR1M |
| Aircraft | A310/H-SDFGHIM1RTUWXYZ/LB1 |
Departure
| Time | 2026-04-22 17:54 |
|---|---|
| Airport | Kurumoch International Airport (UWWW) |
Arrival
| Time | 2026-04-22 20:41 |
|---|---|
| Airport | Emperor Nicholas II Murmansk Airport (ULMM) |
| Time | Latitude | Longitude | Altitude | Speed | Heading |
|---|---|---|---|---|---|
| 2026-04-22 16:45 | 53.50819 | 50.15303 | 452 ft | 0 kts | 333° |
| 2026-04-22 17:33 | 53.50824 | 50.15299 | 452 ft | 1 kts | 333° |
| 2026-04-22 17:33 | 53.50847 | 50.15284 | 452 ft | 5 kts | 350° |
| 2026-04-22 17:33 | 53.50873 | 50.15302 | 452 ft | 4 kts | 40° |
| 2026-04-22 17:34 | 53.50889 | 50.15337 | 452 ft | 4 kts | 56° |
| 2026-04-22 17:34 | 53.50903 | 50.15376 | 452 ft | 4 kts | 59° |
| 2026-04-22 17:34 | 53.50917 | 50.15417 | 452 ft | 5 kts | 60° |
| 2026-04-22 17:34 | 53.50939 | 50.15486 | 452 ft | 9 kts | 62° |
| 2026-04-22 17:35 | 53.50976 | 50.15598 | 452 ft | 12 kts | 61° |
| 2026-04-22 17:35 | 53.51014 | 50.15715 | 452 ft | 11 kts | 62° |
| 2026-04-22 17:35 | 53.51051 | 50.15831 | 452 ft | 11 kts | 61° |
| 2026-04-22 17:35 | 53.51088 | 50.15945 | 451 ft | 11 kts | 61° |
| 2026-04-22 17:36 | 53.51125 | 50.16057 | 452 ft | 11 kts | 61° |
| 2026-04-22 17:36 | 53.51161 | 50.16168 | 452 ft | 11 kts | 62° |
| 2026-04-22 17:36 | 53.51198 | 50.16282 | 452 ft | 12 kts | 62° |
| 2026-04-22 17:36 | 53.51242 | 50.16417 | 452 ft | 14 kts | 61° |
| 2026-04-22 17:37 | 53.51288 | 50.16558 | 452 ft | 14 kts | 61° |
| 2026-04-22 17:37 | 53.51330 | 50.16686 | 452 ft | 12 kts | 57° |
| 2026-04-22 17:37 | 53.51396 | 50.16696 | 452 ft | 10 kts | 341° |
| 2026-04-22 17:37 | 53.51461 | 50.16658 | 452 ft | 10 kts | 341° |
| 2026-04-22 17:38 | 53.51525 | 50.16621 | 452 ft | 10 kts | 340° |
| 2026-04-22 17:38 | 53.51589 | 50.16582 | 452 ft | 10 kts | 340° |
| 2026-04-22 17:38 | 53.51653 | 50.16544 | 452 ft | 10 kts | 340° |
| 2026-04-22 17:38 | 53.51719 | 50.16529 | 452 ft | 9 kts | 6° |
| 2026-04-22 17:39 | 53.51776 | 50.16576 | 453 ft | 9 kts | 42° |
| 2026-04-22 17:39 | 53.51799 | 50.16632 | 452 ft | 0 kts | 64° |
| 2026-04-22 17:52 | 53.51804 | 50.16651 | 453 ft | 6 kts | 67° |
| 2026-04-22 17:52 | 53.51826 | 50.16762 | 453 ft | 11 kts | 73° |
| 2026-04-22 17:52 | 53.51823 | 50.16845 | 454 ft | 4 kts | 123° |
| 2026-04-22 17:53 | 53.51784 | 50.16885 | 456 ft | 13 kts | 156° |
| 2026-04-22 17:53 | 53.51590 | 50.17005 | 456 ft | 56 kts | 160° |
| 2026-04-22 17:53 | 53.51026 | 50.17342 | 449 ft | 114 kts | 160° |
| 2026-04-22 17:53 | 53.50127 | 50.17888 | 514 ft | 153 kts | 159° |
| 2026-04-22 17:54 | 53.49139 | 50.18514 | 1011 ft | 152 kts | 159° |
| 2026-04-22 17:54 | 53.48144 | 50.19130 | 1622 ft | 151 kts | 161° |
| 2026-04-22 17:54 | 53.47162 | 50.19712 | 2165 ft | 154 kts | 162° |
| 2026-04-22 17:54 | 53.46091 | 50.20343 | 2463 ft | 173 kts | 162° |
| 2026-04-22 17:55 | 53.44915 | 50.21042 | 3019 ft | 181 kts | 162° |
| 2026-04-22 17:55 | 53.43701 | 50.21756 | 3555 ft | 194 kts | 163° |
| 2026-04-22 17:55 | 53.42359 | 50.22532 | 3916 ft | 213 kts | 163° |
| 2026-04-22 17:55 | 53.40903 | 50.22639 | 4495 ft | 210 kts | 204° |
| 2026-04-22 17:56 | 53.39816 | 50.21072 | 5204 ft | 213 kts | 242° |
| 2026-04-22 17:56 | 53.39248 | 50.18737 | 5984 ft | 221 kts | 249° |
| 2026-04-22 17:56 | 53.38746 | 50.16269 | 6756 ft | 226 kts | 250° |
| 2026-04-22 17:56 | 53.38228 | 50.13767 | 7612 ft | 229 kts | 249° |
| 2026-04-22 17:57 | 53.37690 | 50.11237 | 8448 ft | 233 kts | 249° |
| 2026-04-22 17:57 | 53.37447 | 50.08526 | 9237 ft | 244 kts | 276° |
| 2026-04-22 17:57 | 53.38060 | 50.05798 | 9946 ft | 262 kts | 301° |
| 2026-04-22 17:57 | 53.39444 | 50.03646 | 10445 ft | 289 kts | 330° |
| 2026-04-22 17:58 | 53.41453 | 50.02687 | 10921 ft | 312 kts | 348° |
| 2026-04-22 17:58 | 53.43672 | 50.02225 | 11403 ft | 330 kts | 351° |
| 2026-04-22 17:58 | 53.46013 | 50.01816 | 11968 ft | 345 kts | 351° |
| 2026-04-22 17:58 | 53.48439 | 50.01356 | 12626 ft | 355 kts | 351° |
| 2026-04-22 17:59 | 53.50892 | 50.00867 | 13274 ft | 366 kts | 351° |
| 2026-04-22 17:59 | 53.53470 | 50.00345 | 13769 ft | 380 kts | 351° |
| 2026-04-22 17:59 | 53.56138 | 49.99781 | 14196 ft | 393 kts | 350° |
| 2026-04-22 17:59 | 53.58882 | 49.99184 | 14789 ft | 401 kts | 350° |
| 2026-04-22 18:00 | 53.60726 | 49.98796 | 15231 ft | 404 kts | 350° |
| 2026-04-22 18:00 | 53.64486 | 49.97967 | 16149 ft | 411 kts | 350° |
| 2026-04-22 18:00 | 53.67334 | 49.97360 | 16822 ft | 415 kts | 350° |
| 2026-04-22 18:00 | 53.70219 | 49.96721 | 17496 ft | 420 kts | 350° |
| 2026-04-22 18:01 | 53.73141 | 49.96098 | 18150 ft | 425 kts | 350° |
| 2026-04-22 18:01 | 53.76082 | 49.95463 | 18729 ft | 429 kts | 350° |
| 2026-04-22 18:01 | 53.79058 | 49.94825 | 19286 ft | 433 kts | 350° |
| 2026-04-22 18:01 | 53.82076 | 49.94180 | 19599 ft | 437 kts | 350° |
| 2026-04-22 18:02 | 53.85096 | 49.93539 | 20019 ft | 439 kts | 350° |
| 2026-04-22 18:02 | 53.88128 | 49.92891 | 20678 ft | 440 kts | 350° |
| 2026-04-22 18:02 | 53.91176 | 49.92238 | 21261 ft | 443 kts | 351° |
| 2026-04-22 18:02 | 53.94254 | 49.91595 | 21840 ft | 446 kts | 350° |
| 2026-04-22 18:03 | 53.97338 | 49.90925 | 22424 ft | 449 kts | 351° |
| 2026-04-22 18:03 | 54.00416 | 49.90286 | 23007 ft | 452 kts | 351° |
| 2026-04-22 18:03 | 54.03543 | 49.89618 | 23533 ft | 454 kts | 350° |
| 2026-04-22 18:03 | 54.06692 | 49.88917 | 24020 ft | 457 kts | 351° |
| 2026-04-22 18:04 | 54.09863 | 49.88242 | 24498 ft | 460 kts | 351° |
| 2026-04-22 18:04 | 54.13056 | 49.87537 | 24974 ft | 463 kts | 351° |
| 2026-04-22 18:04 | 54.16257 | 49.86846 | 25516 ft | 464 kts | 351° |
| 2026-04-22 18:04 | 54.19459 | 49.86146 | 26162 ft | 463 kts | 351° |
| 2026-04-22 18:05 | 54.22655 | 49.85450 | 26806 ft | 462 kts | 351° |
| 2026-04-22 18:05 | 54.25840 | 49.84761 | 27450 ft | 460 kts | 351° |
| 2026-04-22 18:05 | 54.29011 | 49.84074 | 28097 ft | 459 kts | 351° |
| 2026-04-22 18:05 | 54.32179 | 49.83368 | 28738 ft | 458 kts | 351° |
| 2026-04-22 18:06 | 54.35336 | 49.82673 | 29372 ft | 457 kts | 351° |
| 2026-04-22 18:06 | 54.38485 | 49.81926 | 29972 ft | 456 kts | 350° |
| 2026-04-22 18:06 | 54.41625 | 49.81142 | 30454 ft | 456 kts | 350° |
| 2026-04-22 18:06 | 54.44777 | 49.80547 | 30907 ft | 456 kts | 356° |
| 2026-04-22 18:07 | 54.47919 | 49.80478 | 31359 ft | 457 kts | 360° |
| 2026-04-22 18:07 | 54.51102 | 49.80623 | 31799 ft | 458 kts | 0° |
| 2026-04-22 18:07 | 54.54291 | 49.80755 | 32253 ft | 458 kts | 360° |
| 2026-04-22 18:07 | 54.57479 | 49.80824 | 32655 ft | 458 kts | 359° |
| 2026-04-22 18:08 | 54.60673 | 49.80823 | 33113 ft | 458 kts | 358° |
| 2026-04-22 18:08 | 54.63865 | 49.80817 | 33544 ft | 458 kts | 359° |
| 2026-04-22 18:08 | 54.67050 | 49.80856 | 33921 ft | 458 kts | 359° |
| 2026-04-22 18:08 | 54.70251 | 49.80859 | 34245 ft | 459 kts | 358° |
| 2026-04-22 18:09 | 54.73404 | 49.80852 | 34578 ft | 459 kts | 359° |
| 2026-04-22 18:09 | 54.76594 | 49.80875 | 34892 ft | 459 kts | 359° |
| 2026-04-22 18:09 | 54.79796 | 49.80881 | 35219 ft | 459 kts | 358° |
| 2026-04-22 18:09 | 54.82989 | 49.80883 | 35506 ft | 461 kts | 358° |
| 2026-04-22 18:10 | 54.86214 | 49.80912 | 35621 ft | 464 kts | 359° |
| 2026-04-22 18:10 | 54.92670 | 49.80953 | 35705 ft | 465 kts | 359° |
| 2026-04-22 18:11 | 54.99146 | 49.80985 | 35709 ft | 466 kts | 359° |
| 2026-04-22 18:11 | 55.05631 | 49.81024 | 35716 ft | 465 kts | 359° |
| 2026-04-22 18:12 | 55.12105 | 49.81073 | 35716 ft | 465 kts | 359° |
| 2026-04-22 18:12 | 55.17477 | 49.81125 | 35711 ft | 465 kts | 359° |
| 2026-04-22 18:13 | 55.25042 | 49.81204 | 35694 ft | 465 kts | 358° |
| 2026-04-22 18:13 | 55.31462 | 49.81213 | 35699 ft | 464 kts | 359° |
| 2026-04-22 18:14 | 55.37916 | 49.81249 | 35699 ft | 464 kts | 359° |
| 2026-04-22 18:14 | 55.44380 | 49.81278 | 35693 ft | 464 kts | 358° |
| 2026-04-22 18:15 | 55.50844 | 49.81323 | 35684 ft | 464 kts | 359° |
| 2026-04-22 18:15 | 55.57303 | 49.81343 | 35689 ft | 464 kts | 359° |
| 2026-04-22 18:16 | 55.63759 | 49.81379 | 35681 ft | 464 kts | 359° |
| 2026-04-22 18:16 | 55.70209 | 49.81420 | 35684 ft | 464 kts | 359° |
| 2026-04-22 18:17 | 55.76658 | 49.81440 | 35678 ft | 464 kts | 359° |
| 2026-04-22 18:17 | 55.83110 | 49.81470 | 35682 ft | 463 kts | 359° |
| 2026-04-22 18:18 | 55.89563 | 49.81512 | 35671 ft | 464 kts | 359° |
| 2026-04-22 18:18 | 55.95975 | 49.81539 | 35677 ft | 463 kts | 359° |
| 2026-04-22 18:19 | 56.02423 | 49.81564 | 35681 ft | 463 kts | 359° |
| 2026-04-22 18:19 | 56.08870 | 49.81592 | 35677 ft | 463 kts | 359° |
| 2026-04-22 18:20 | 56.15317 | 49.81624 | 35674 ft | 463 kts | 359° |
| 2026-04-22 18:20 | 56.21766 | 49.81664 | 35668 ft | 463 kts | 358° |
| 2026-04-22 18:21 | 56.28175 | 49.81707 | 35668 ft | 463 kts | 359° |
| 2026-04-22 18:21 | 56.34618 | 49.81731 | 35666 ft | 463 kts | 358° |
| 2026-04-22 18:22 | 56.41053 | 49.81748 | 35668 ft | 462 kts | 359° |
| 2026-04-22 18:22 | 56.47487 | 49.81782 | 35669 ft | 462 kts | 359° |
| 2026-04-22 18:23 | 56.53922 | 49.81823 | 35664 ft | 462 kts | 359° |
| 2026-04-22 18:23 | 56.60355 | 49.81873 | 35658 ft | 462 kts | 359° |
| 2026-04-22 18:24 | 56.69994 | 49.81972 | 35665 ft | 462 kts | 359° |
| 2026-04-22 18:25 | 56.79614 | 49.82789 | 35656 ft | 463 kts | 9° |
| 2026-04-22 18:25 | 56.85930 | 49.85341 | 35643 ft | 464 kts | 11° |
| 2026-04-22 18:26 | 56.95388 | 49.88809 | 35653 ft | 464 kts | 9° |
| 2026-04-22 18:26 | 57.01720 | 49.91057 | 35647 ft | 464 kts | 9° |
| 2026-04-22 18:27 | 57.08062 | 49.93292 | 35654 ft | 464 kts | 9° |
| 2026-04-22 18:27 | 57.14395 | 49.95565 | 35652 ft | 463 kts | 9° |
| 2026-04-22 18:28 | 57.20734 | 49.97829 | 35644 ft | 464 kts | 9° |
| 2026-04-22 18:28 | 57.27074 | 50.00099 | 35644 ft | 464 kts | 9° |
| 2026-04-22 18:29 | 57.33402 | 50.02386 | 35645 ft | 463 kts | 9° |
| 2026-04-22 18:29 | 57.39694 | 50.04664 | 35643 ft | 464 kts | 9° |
| 2026-04-22 18:30 | 57.49188 | 50.08125 | 35639 ft | 463 kts | 9° |
| 2026-04-22 18:31 | 57.55515 | 50.10413 | 35638 ft | 463 kts | 9° |
| 2026-04-22 18:31 | 57.61849 | 50.12759 | 35640 ft | 463 kts | 9° |
| 2026-04-22 18:32 | 57.67107 | 50.14686 | 35630 ft | 463 kts | 9° |
| 2026-04-22 18:32 | 57.74497 | 50.17393 | 35629 ft | 463 kts | 9° |
| 2026-04-22 18:33 | 57.80820 | 50.19731 | 35636 ft | 463 kts | 9° |
| 2026-04-22 18:33 | 57.87143 | 50.22084 | 35627 ft | 463 kts | 9° |
| 2026-04-22 18:34 | 57.93420 | 50.24429 | 35623 ft | 463 kts | 9° |
| 2026-04-22 18:34 | 57.99739 | 50.26808 | 35624 ft | 463 kts | 9° |
| 2026-04-22 18:35 | 58.06069 | 50.29202 | 35619 ft | 463 kts | 9° |
| 2026-04-22 18:35 | 58.12387 | 50.31604 | 35617 ft | 463 kts | 10° |
| 2026-04-22 18:36 | 58.18693 | 50.34085 | 35614 ft | 463 kts | 11° |
| 2026-04-22 18:36 | 58.25003 | 50.36645 | 35612 ft | 463 kts | 10° |
| 2026-04-22 18:37 | 58.31313 | 50.39189 | 35611 ft | 463 kts | 10° |
| 2026-04-22 18:37 | 58.36561 | 50.41274 | 35605 ft | 463 kts | 10° |
| 2026-04-22 18:38 | 58.43890 | 50.44243 | 35602 ft | 463 kts | 11° |
| 2026-04-22 18:38 | 58.50194 | 50.46804 | 35595 ft | 463 kts | 10° |
| 2026-04-22 18:39 | 58.58607 | 50.50224 | 35590 ft | 463 kts | 9° |
| 2026-04-22 18:39 | 58.64939 | 50.52570 | 35592 ft | 463 kts | 8° |
| 2026-04-22 18:40 | 58.71273 | 50.54861 | 35583 ft | 463 kts | 9° |
| 2026-04-22 18:40 | 58.77618 | 50.57151 | 35582 ft | 463 kts | 9° |
| 2026-04-22 18:41 | 58.83906 | 50.59477 | 35584 ft | 463 kts | 9° |
| 2026-04-22 18:41 | 58.90219 | 50.61762 | 34601 ft | 449 kts | 10° |
| 2026-04-22 18:42 | 58.93234 | 50.62857 | 35427 ft | 439 kts | 10° |
| 2026-04-22 18:42 | 58.96233 | 50.63921 | 35743 ft | 438 kts | 9° |
| 2026-04-22 18:42 | 58.99246 | 50.64941 | 35898 ft | 441 kts | 9° |
| 2026-04-22 18:42 | 59.02293 | 50.65977 | 35955 ft | 447 kts | 10° |
| 2026-04-22 18:43 | 59.08493 | 50.68236 | 35984 ft | 457 kts | 11° |
| 2026-04-22 18:43 | 59.14726 | 50.70551 | 35999 ft | 455 kts | 11° |
| 2026-04-22 18:44 | 59.20955 | 50.72819 | 35992 ft | 455 kts | 10° |
| 2026-04-22 18:44 | 59.27181 | 50.74043 | 36012 ft | 452 kts | 349° |
| 2026-04-22 18:45 | 59.30132 | 50.72074 | 36028 ft | 449 kts | 329° |
| 2026-04-22 18:45 | 59.32627 | 50.68396 | 36037 ft | 451 kts | 317° |
| 2026-04-22 18:45 | 59.37518 | 50.60644 | 35996 ft | 453 kts | 326° |
| 2026-04-22 18:46 | 59.42941 | 50.54342 | 35998 ft | 454 kts | 330° |
| 2026-04-22 18:46 | 59.48450 | 50.48253 | 35991 ft | 454 kts | 329° |
| 2026-04-22 18:47 | 59.53895 | 50.41957 | 35995 ft | 454 kts | 329° |
| 2026-04-22 18:47 | 59.59338 | 50.35611 | 35996 ft | 454 kts | 329° |
| 2026-04-22 18:48 | 59.64783 | 50.29284 | 35996 ft | 454 kts | 328° |
| 2026-04-22 18:48 | 59.70198 | 50.22842 | 35994 ft | 454 kts | 329° |
| 2026-04-22 18:49 | 59.75568 | 50.16422 | 35998 ft | 454 kts | 329° |
| 2026-04-22 18:49 | 59.80980 | 50.09943 | 36000 ft | 454 kts | 328° |
| 2026-04-22 18:50 | 59.86387 | 50.03469 | 36000 ft | 451 kts | 328° |
| 2026-04-22 18:50 | 59.91842 | 49.96937 | 36004 ft | 465 kts | 329° |
| 2026-04-22 18:51 | 59.97449 | 49.90212 | 35996 ft | 472 kts | 328° |
| 2026-04-22 18:51 | 60.03071 | 49.83475 | 35998 ft | 471 kts | 328° |
| 2026-04-22 18:52 | 60.08621 | 49.76475 | 36005 ft | 471 kts | 326° |
| 2026-04-22 18:52 | 60.14100 | 49.69261 | 35995 ft | 471 kts | 326° |
| 2026-04-22 18:53 | 60.19541 | 49.62064 | 36002 ft | 471 kts | 326° |
| 2026-04-22 18:53 | 60.25021 | 49.54812 | 35998 ft | 471 kts | 326° |
| 2026-04-22 18:54 | 60.30497 | 49.47562 | 36000 ft | 471 kts | 326° |
| 2026-04-22 18:54 | 60.35965 | 49.40268 | 36000 ft | 471 kts | 326° |
| 2026-04-22 18:55 | 60.41428 | 49.32957 | 36000 ft | 471 kts | 326° |
| 2026-04-22 18:55 | 60.46854 | 49.25666 | 36000 ft | 471 kts | 326° |
| 2026-04-22 18:56 | 60.52311 | 49.18292 | 36005 ft | 471 kts | 326° |
| 2026-04-22 18:56 | 60.57764 | 49.10893 | 35999 ft | 471 kts | 326° |
| 2026-04-22 18:57 | 60.63206 | 49.03468 | 35999 ft | 471 kts | 326° |
| 2026-04-22 18:57 | 60.68645 | 48.96021 | 35998 ft | 471 kts | 326° |
| 2026-04-22 18:58 | 60.74095 | 48.88560 | 36004 ft | 471 kts | 326° |
| 2026-04-22 18:58 | 60.79523 | 48.81069 | 36000 ft | 471 kts | 326° |
| 2026-04-22 18:59 | 60.84921 | 48.73602 | 35999 ft | 471 kts | 326° |
| 2026-04-22 18:59 | 60.90336 | 48.66038 | 35996 ft | 471 kts | 325° |
| 2026-04-22 19:00 | 60.95735 | 48.58399 | 36001 ft | 471 kts | 326° |
| 2026-04-22 19:00 | 61.01156 | 48.50804 | 35996 ft | 471 kts | 325° |
| 2026-04-22 19:01 | 61.06575 | 48.43210 | 35998 ft | 471 kts | 325° |
| 2026-04-22 19:01 | 61.11989 | 48.35575 | 35999 ft | 471 kts | 325° |
| 2026-04-22 19:02 | 61.17363 | 48.27962 | 36003 ft | 471 kts | 325° |
| 2026-04-22 19:02 | 61.22756 | 48.20232 | 36002 ft | 471 kts | 325° |
| 2026-04-22 19:03 | 61.28165 | 48.12531 | 36004 ft | 471 kts | 325° |
| 2026-04-22 19:03 | 61.33559 | 48.04790 | 35994 ft | 471 kts | 325° |
| 2026-04-22 19:04 | 61.38953 | 47.97038 | 36000 ft | 471 kts | 325° |
| 2026-04-22 19:04 | 61.44309 | 47.89290 | 36003 ft | 471 kts | 325° |
| 2026-04-22 19:05 | 61.49697 | 47.81486 | 36001 ft | 471 kts | 325° |
| 2026-04-22 19:05 | 61.55086 | 47.73672 | 35998 ft | 471 kts | 325° |
| 2026-04-22 19:06 | 61.60481 | 47.65843 | 36000 ft | 471 kts | 325° |
| 2026-04-22 19:07 | 61.68534 | 47.54005 | 36003 ft | 471 kts | 325° |
| 2026-04-22 19:07 | 61.73894 | 47.46066 | 36000 ft | 471 kts | 324° |
| 2026-04-22 19:08 | 61.79251 | 47.38092 | 35999 ft | 471 kts | 324° |
| 2026-04-22 19:08 | 61.84552 | 47.30098 | 36001 ft | 471 kts | 324° |
| 2026-04-22 19:09 | 61.89904 | 47.22083 | 35994 ft | 471 kts | 324° |
| 2026-04-22 19:09 | 61.94354 | 47.15387 | 36001 ft | 471 kts | 324° |
| 2026-04-22 19:10 | 62.00596 | 47.05929 | 36002 ft | 471 kts | 324° |
| 2026-04-22 19:10 | 62.05938 | 46.97856 | 36001 ft | 471 kts | 324° |
| 2026-04-22 19:11 | 62.11280 | 46.89753 | 35999 ft | 471 kts | 324° |
| 2026-04-22 19:11 | 62.16618 | 46.81640 | 36006 ft | 471 kts | 324° |
| 2026-04-22 19:12 | 62.21928 | 46.73560 | 36001 ft | 471 kts | 324° |
| 2026-04-22 19:12 | 62.27246 | 46.65355 | 35997 ft | 471 kts | 324° |
| 2026-04-22 19:13 | 62.32561 | 46.57126 | 35999 ft | 471 kts | 323° |
| 2026-04-22 19:13 | 62.37879 | 46.48868 | 35994 ft | 471 kts | 323° |
| 2026-04-22 19:14 | 62.43189 | 46.40586 | 35999 ft | 471 kts | 323° |
| 2026-04-22 19:14 | 62.48488 | 46.32254 | 35998 ft | 471 kts | 324° |
| 2026-04-22 19:15 | 62.52892 | 46.25314 | 35999 ft | 471 kts | 323° |
| 2026-04-22 19:15 | 62.59041 | 46.15557 | 37309 ft | 472 kts | 322° |
| 2026-04-22 19:15 | 62.61671 | 46.11157 | 36254 ft | 484 kts | 320° |
| 2026-04-22 19:16 | 62.64298 | 46.06566 | 35686 ft | 480 kts | 320° |
| 2026-04-22 19:16 | 62.66888 | 46.02082 | 35455 ft | 470 kts | 320° |
| 2026-04-22 19:16 | 62.69452 | 45.97679 | 35381 ft | 472 kts | 320° |
| 2026-04-22 19:17 | 62.74637 | 45.88790 | 35319 ft | 474 kts | 320° |
| 2026-04-22 19:17 | 62.79826 | 45.79882 | 35285 ft | 474 kts | 320° |
| 2026-04-22 19:18 | 62.84961 | 45.70972 | 35280 ft | 474 kts | 320° |
| 2026-04-22 19:18 | 62.90125 | 45.61962 | 35281 ft | 474 kts | 320° |
| 2026-04-22 19:19 | 62.95282 | 45.52922 | 35276 ft | 474 kts | 320° |
| 2026-04-22 19:19 | 63.00431 | 45.43859 | 35284 ft | 474 kts | 320° |
| 2026-04-22 19:20 | 63.05585 | 45.34765 | 35280 ft | 475 kts | 320° |
| 2026-04-22 19:20 | 63.10732 | 45.25635 | 35290 ft | 475 kts | 320° |
| 2026-04-22 19:21 | 63.15843 | 45.16519 | 35282 ft | 475 kts | 320° |
| 2026-04-22 19:21 | 63.20978 | 45.07293 | 35280 ft | 475 kts | 320° |
| 2026-04-22 19:22 | 63.26110 | 44.98047 | 35291 ft | 475 kts | 320° |
| 2026-04-22 19:22 | 63.31243 | 44.88773 | 35286 ft | 476 kts | 320° |
| 2026-04-22 19:23 | 63.36354 | 44.79420 | 35290 ft | 476 kts | 319° |
| 2026-04-22 19:23 | 63.41456 | 44.70007 | 35297 ft | 476 kts | 320° |
| 2026-04-22 19:24 | 63.46583 | 44.60640 | 35293 ft | 475 kts | 320° |
| 2026-04-22 19:24 | 63.51708 | 44.51278 | 35295 ft | 475 kts | 320° |
| 2026-04-22 19:25 | 63.56774 | 44.41895 | 35303 ft | 475 kts | 319° |
| 2026-04-22 19:25 | 63.61869 | 44.32450 | 35299 ft | 475 kts | 319° |
| 2026-04-22 19:26 | 63.66952 | 44.22957 | 35307 ft | 474 kts | 319° |
| 2026-04-22 19:26 | 63.72009 | 44.13406 | 35314 ft | 474 kts | 319° |
| 2026-04-22 19:27 | 63.77096 | 44.03895 | 35310 ft | 474 kts | 319° |
| 2026-04-22 19:27 | 63.82169 | 43.94344 | 35314 ft | 474 kts | 319° |
| 2026-04-22 19:28 | 63.87225 | 43.84736 | 35318 ft | 474 kts | 320° |
| 2026-04-22 19:28 | 63.92281 | 43.75105 | 35324 ft | 474 kts | 319° |
| 2026-04-22 19:29 | 63.97298 | 43.65507 | 35327 ft | 474 kts | 319° |
| 2026-04-22 19:29 | 64.02337 | 43.55809 | 35326 ft | 474 kts | 319° |
| 2026-04-22 19:30 | 64.05703 | 43.49314 | 35330 ft | 474 kts | 319° |
| 2026-04-22 19:30 | 64.12391 | 43.36321 | 35336 ft | 474 kts | 319° |
| 2026-04-22 19:31 | 64.16573 | 43.28182 | 35341 ft | 474 kts | 319° |
| 2026-04-22 19:31 | 64.21566 | 43.18307 | 35340 ft | 474 kts | 319° |
| 2026-04-22 19:32 | 64.26581 | 43.08459 | 35349 ft | 474 kts | 319° |
| 2026-04-22 19:32 | 64.31586 | 42.98563 | 35350 ft | 474 kts | 319° |
| 2026-04-22 19:33 | 64.36592 | 42.88656 | 35353 ft | 474 kts | 319° |
| 2026-04-22 19:33 | 64.41594 | 42.78710 | 35355 ft | 473 kts | 319° |
| 2026-04-22 19:34 | 64.46574 | 42.68710 | 35359 ft | 474 kts | 319° |
| 2026-04-22 19:34 | 64.51511 | 42.58730 | 35362 ft | 474 kts | 319° |
| 2026-04-22 19:35 | 64.56481 | 42.48658 | 35370 ft | 474 kts | 319° |
| 2026-04-22 19:35 | 64.61450 | 42.38566 | 35367 ft | 474 kts | 319° |
| 2026-04-22 19:36 | 64.66414 | 42.28448 | 35376 ft | 473 kts | 319° |
| 2026-04-22 19:36 | 64.71360 | 42.18296 | 35379 ft | 473 kts | 319° |
| 2026-04-22 19:37 | 64.76307 | 42.08121 | 35388 ft | 473 kts | 319° |
| 2026-04-22 19:37 | 64.81245 | 41.97876 | 35390 ft | 473 kts | 318° |
| 2026-04-22 19:38 | 64.85973 | 41.87280 | 35396 ft | 473 kts | 316° |
| 2026-04-22 19:38 | 64.90712 | 41.76550 | 35396 ft | 472 kts | 317° |
| 2026-04-22 19:39 | 64.95456 | 41.65856 | 35400 ft | 472 kts | 317° |
| 2026-04-22 19:39 | 65.00365 | 41.55556 | 35409 ft | 472 kts | 320° |
| 2026-04-22 19:40 | 65.05386 | 41.45579 | 35405 ft | 472 kts | 320° |
| 2026-04-22 19:40 | 65.10372 | 41.35434 | 35415 ft | 472 kts | 320° |
| 2026-04-22 19:41 | 65.15340 | 41.25254 | 35419 ft | 471 kts | 320° |
| 2026-04-22 19:41 | 65.20300 | 41.15049 | 35423 ft | 471 kts | 320° |
| 2026-04-22 19:42 | 65.25256 | 41.04796 | 35425 ft | 471 kts | 319° |
| 2026-04-22 19:42 | 65.30170 | 40.94565 | 35428 ft | 471 kts | 320° |
| 2026-04-22 19:43 | 65.37575 | 40.79057 | 35428 ft | 471 kts | 319° |
| 2026-04-22 19:43 | 65.42491 | 40.68651 | 35434 ft | 470 kts | 320° |
| 2026-04-22 19:44 | 65.47399 | 40.58244 | 35436 ft | 470 kts | 319° |
| 2026-04-22 19:44 | 65.52304 | 40.47820 | 35442 ft | 470 kts | 319° |
| 2026-04-22 19:45 | 65.57198 | 40.37352 | 35440 ft | 469 kts | 319° |
| 2026-04-22 19:45 | 65.62037 | 40.26923 | 35442 ft | 469 kts | 320° |
| 2026-04-22 19:46 | 65.66903 | 40.16380 | 35453 ft | 468 kts | 320° |
| 2026-04-22 19:46 | 65.71808 | 40.06009 | 35448 ft | 468 kts | 321° |
| 2026-04-22 19:47 | 65.76812 | 39.95909 | 35457 ft | 467 kts | 322° |
| 2026-04-22 19:47 | 65.81827 | 39.85812 | 35458 ft | 467 kts | 322° |
| 2026-04-22 19:48 | 65.86796 | 39.75646 | 35460 ft | 466 kts | 322° |
| 2026-04-22 19:48 | 65.91770 | 39.65449 | 35459 ft | 466 kts | 321° |
| 2026-04-22 19:49 | 65.96735 | 39.55271 | 35470 ft | 465 kts | 322° |
| 2026-04-22 19:49 | 66.01699 | 39.45229 | 35473 ft | 465 kts | 322° |
| 2026-04-22 19:50 | 66.06676 | 39.35070 | 35474 ft | 464 kts | 322° |
| 2026-04-22 19:50 | 66.11654 | 39.24876 | 35480 ft | 464 kts | 322° |
| 2026-04-22 19:51 | 66.16601 | 39.14644 | 35485 ft | 464 kts | 322° |
| 2026-04-22 19:51 | 66.21526 | 39.04318 | 35488 ft | 463 kts | 322° |
| 2026-04-22 19:52 | 66.26403 | 38.94036 | 35489 ft | 463 kts | 322° |
| 2026-04-22 19:52 | 66.31297 | 38.83657 | 35500 ft | 462 kts | 322° |
| 2026-04-22 19:53 | 66.36179 | 38.73244 | 35503 ft | 462 kts | 322° |
| 2026-04-22 19:53 | 66.41048 | 38.62795 | 35507 ft | 461 kts | 322° |
| 2026-04-22 19:54 | 66.45906 | 38.52311 | 35517 ft | 461 kts | 322° |
| 2026-04-22 19:54 | 66.50764 | 38.41840 | 35517 ft | 460 kts | 322° |
| 2026-04-22 19:55 | 66.55596 | 38.31307 | 35523 ft | 460 kts | 322° |
| 2026-04-22 19:55 | 66.60420 | 38.20793 | 35531 ft | 459 kts | 322° |
| 2026-04-22 19:56 | 66.65234 | 38.10229 | 35536 ft | 458 kts | 322° |
| 2026-04-22 19:56 | 66.70029 | 37.99654 | 35548 ft | 458 kts | 322° |
| 2026-04-22 19:57 | 66.74778 | 37.89092 | 35546 ft | 457 kts | 322° |
| 2026-04-22 19:57 | 66.79521 | 37.78386 | 35544 ft | 457 kts | 321° |
| 2026-04-22 19:58 | 66.84252 | 37.67637 | 35559 ft | 456 kts | 322° |
| 2026-04-22 19:58 | 66.88994 | 37.56923 | 35561 ft | 455 kts | 322° |
| 2026-04-22 20:00 | 67.05475 | 37.19289 | 35581 ft | 453 kts | 322° |
| 2026-04-22 20:01 | 67.10165 | 37.08462 | 35588 ft | 453 kts | 322° |
| 2026-04-22 20:01 | 67.14830 | 36.97628 | 35591 ft | 452 kts | 322° |
| 2026-04-22 20:02 | 67.19454 | 36.86823 | 35599 ft | 451 kts | 322° |
| 2026-04-22 20:02 | 67.24093 | 36.75923 | 35605 ft | 451 kts | 322° |
| 2026-04-22 20:03 | 67.28723 | 36.64984 | 35613 ft | 450 kts | 322° |
| 2026-04-22 20:03 | 67.33341 | 36.54035 | 35613 ft | 450 kts | 321° |
| 2026-04-22 20:04 | 67.37949 | 36.43025 | 35624 ft | 449 kts | 322° |
| 2026-04-22 20:04 | 67.42535 | 36.32011 | 35617 ft | 449 kts | 322° |
| 2026-04-22 20:05 | 67.47114 | 36.20966 | 35635 ft | 448 kts | 321° |
| 2026-04-22 20:05 | 67.51682 | 36.09879 | 35637 ft | 448 kts | 321° |
| 2026-04-22 20:06 | 67.56235 | 35.98774 | 35635 ft | 447 kts | 322° |
| 2026-04-22 20:06 | 67.60745 | 35.87726 | 35641 ft | 446 kts | 321° |
| 2026-04-22 20:07 | 67.65268 | 35.76578 | 35648 ft | 445 kts | 321° |
| 2026-04-22 20:07 | 67.69766 | 35.65417 | 35654 ft | 444 kts | 322° |
| 2026-04-22 20:08 | 67.74252 | 35.54236 | 35662 ft | 443 kts | 321° |
| 2026-04-22 20:08 | 67.78720 | 35.43038 | 35660 ft | 443 kts | 321° |
| 2026-04-22 20:09 | 67.83170 | 35.31799 | 35654 ft | 442 kts | 321° |
| 2026-04-22 20:09 | 67.87610 | 35.20536 | 35668 ft | 442 kts | 321° |
| 2026-04-22 20:10 | 67.92042 | 35.09249 | 35681 ft | 441 kts | 321° |
| 2026-04-22 20:10 | 67.96474 | 34.97930 | 35689 ft | 441 kts | 321° |
| 2026-04-22 20:11 | 68.00889 | 34.86601 | 35686 ft | 440 kts | 321° |
| 2026-04-22 20:11 | 68.05298 | 34.75244 | 35684 ft | 440 kts | 321° |
| 2026-04-22 20:12 | 68.09680 | 34.63802 | 35698 ft | 439 kts | 321° |
| 2026-04-22 20:12 | 68.13311 | 34.54284 | 35701 ft | 439 kts | 321° |
| 2026-04-22 20:13 | 68.18371 | 34.40957 | 35707 ft | 438 kts | 321° |
| 2026-04-22 20:13 | 68.22623 | 34.29629 | 35701 ft | 416 kts | 320° |
| 2026-04-22 20:13 | 68.24566 | 34.24050 | 35681 ft | 401 kts | 319° |
| 2026-04-22 20:14 | 68.26471 | 34.18632 | 35285 ft | 396 kts | 320° |
| 2026-04-22 20:14 | 68.28399 | 34.13368 | 34745 ft | 393 kts | 322° |
| 2026-04-22 20:14 | 68.30341 | 34.08184 | 34197 ft | 392 kts | 322° |
| 2026-04-22 20:14 | 68.32275 | 34.03011 | 33630 ft | 391 kts | 322° |
| 2026-04-22 20:15 | 68.34204 | 33.97878 | 33005 ft | 388 kts | 323° |
| 2026-04-22 20:15 | 68.36129 | 33.92804 | 32414 ft | 385 kts | 323° |
| 2026-04-22 20:15 | 68.38037 | 33.87732 | 31827 ft | 382 kts | 323° |
| 2026-04-22 20:15 | 68.39919 | 33.82685 | 31255 ft | 379 kts | 323° |
| 2026-04-22 20:16 | 68.41783 | 33.77650 | 30692 ft | 376 kts | 323° |
| 2026-04-22 20:16 | 68.43621 | 33.72634 | 30150 ft | 373 kts | 323° |
| 2026-04-22 20:16 | 68.45439 | 33.67664 | 29550 ft | 368 kts | 323° |
| 2026-04-22 20:16 | 68.47249 | 33.62779 | 28879 ft | 365 kts | 323° |
| 2026-04-22 20:17 | 68.49000 | 33.57956 | 28244 ft | 361 kts | 323° |
| 2026-04-22 20:17 | 68.50765 | 33.53115 | 27617 ft | 358 kts | 323° |
| 2026-04-22 20:17 | 68.52506 | 33.48312 | 27003 ft | 354 kts | 323° |
| 2026-04-22 20:17 | 68.54253 | 33.43637 | 26413 ft | 349 kts | 324° |
| 2026-04-22 20:18 | 68.55993 | 33.39131 | 26007 ft | 340 kts | 325° |
| 2026-04-22 20:18 | 68.57711 | 33.34790 | 25639 ft | 332 kts | 326° |
| 2026-04-22 20:18 | 68.59388 | 33.30556 | 25270 ft | 324 kts | 326° |
| 2026-04-22 20:18 | 68.61019 | 33.26414 | 24905 ft | 317 kts | 326° |
| 2026-04-22 20:19 | 68.62614 | 33.22335 | 24622 ft | 308 kts | 326° |
| 2026-04-22 20:19 | 68.63645 | 33.19722 | 24453 ft | 300 kts | 328° |
| 2026-04-22 20:19 | 68.65149 | 33.15835 | 24221 ft | 292 kts | 326° |
| 2026-04-22 20:19 | 68.66801 | 33.13223 | 24007 ft | 263 kts | 353° |
| 2026-04-22 20:20 | 68.68544 | 33.13649 | 23911 ft | 252 kts | 20° |
| 2026-04-22 20:20 | 68.69852 | 33.16863 | 23801 ft | 265 kts | 49° |
| 2026-04-22 20:20 | 68.70315 | 33.21958 | 23695 ft | 286 kts | 72° |
| 2026-04-22 20:20 | 68.70541 | 33.27235 | 23369 ft | 271 kts | 61° |
| 2026-04-22 20:21 | 68.70912 | 33.32389 | 22900 ft | 280 kts | 69° |
| 2026-04-22 20:21 | 68.70907 | 33.37943 | 22316 ft | 302 kts | 84° |
| 2026-04-22 20:21 | 68.70316 | 33.43681 | 21750 ft | 326 kts | 104° |
| 2026-04-22 20:21 | 68.68928 | 33.48901 | 21229 ft | 348 kts | 126° |
| 2026-04-22 20:22 | 68.67446 | 33.54001 | 20653 ft | 331 kts | 104° |
| 2026-04-22 20:22 | 68.66516 | 33.59647 | 20052 ft | 334 kts | 107° |
| 2026-04-22 20:22 | 68.65344 | 33.65303 | 19380 ft | 346 kts | 114° |
| 2026-04-22 20:22 | 68.63945 | 33.70802 | 18689 ft | 357 kts | 120° |
| 2026-04-22 20:23 | 68.62341 | 33.76111 | 17984 ft | 366 kts | 125° |
| 2026-04-22 20:23 | 68.60567 | 33.81182 | 17211 ft | 372 kts | 129° |
| 2026-04-22 20:23 | 68.58806 | 33.86341 | 16435 ft | 366 kts | 117° |
| 2026-04-22 20:23 | 68.57259 | 33.91906 | 15701 ft | 375 kts | 132° |
| 2026-04-22 20:24 | 68.54998 | 33.95555 | 15208 ft | 382 kts | 159° |
| 2026-04-22 20:24 | 68.52380 | 33.96360 | 14746 ft | 379 kts | 187° |
| 2026-04-22 20:24 | 68.49910 | 33.94235 | 14304 ft | 368 kts | 212° |
| 2026-04-22 20:24 | 68.48025 | 33.89837 | 13857 ft | 350 kts | 240° |
| 2026-04-22 20:25 | 68.47053 | 33.84047 | 13400 ft | 327 kts | 266° |
| 2026-04-22 20:25 | 68.46981 | 33.78112 | 12918 ft | 306 kts | 287° |
| 2026-04-22 20:25 | 68.47630 | 33.72892 | 12453 ft | 286 kts | 308° |
| 2026-04-22 20:25 | 68.48778 | 33.68623 | 11989 ft | 276 kts | 316° |
| 2026-04-22 20:26 | 68.50007 | 33.64647 | 11535 ft | 272 kts | 317° |
| 2026-04-22 20:26 | 68.51225 | 33.60750 | 11070 ft | 268 kts | 316° |
| 2026-04-22 20:26 | 68.52414 | 33.56861 | 10629 ft | 265 kts | 316° |
| 2026-04-22 20:26 | 68.53586 | 33.53013 | 10224 ft | 261 kts | 315° |
| 2026-04-22 20:27 | 68.54722 | 33.49186 | 9847 ft | 257 kts | 315° |
| 2026-04-22 20:27 | 68.55836 | 33.45405 | 9457 ft | 254 kts | 315° |
| 2026-04-22 20:27 | 68.56945 | 33.41717 | 9033 ft | 249 kts | 316° |
| 2026-04-22 20:27 | 68.58040 | 33.38064 | 8588 ft | 247 kts | 315° |
| 2026-04-22 20:28 | 68.59116 | 33.34438 | 8094 ft | 246 kts | 315° |
| 2026-04-22 20:28 | 68.60201 | 33.30815 | 7628 ft | 245 kts | 314° |
| 2026-04-22 20:28 | 68.61268 | 33.27184 | 7141 ft | 244 kts | 314° |
| 2026-04-22 20:28 | 68.62324 | 33.23576 | 6757 ft | 240 kts | 314° |
| 2026-04-22 20:29 | 68.63362 | 33.20103 | 6495 ft | 238 kts | 315° |
| 2026-04-22 20:29 | 68.64449 | 33.16666 | 6248 ft | 239 kts | 316° |
| 2026-04-22 20:29 | 68.65545 | 33.13230 | 5975 ft | 239 kts | 316° |
| 2026-04-22 20:29 | 68.66637 | 33.09800 | 5715 ft | 238 kts | 316° |
| 2026-04-22 20:30 | 68.67721 | 33.06375 | 5440 ft | 236 kts | 316° |
| 2026-04-22 20:30 | 68.68797 | 33.02973 | 5183 ft | 234 kts | 316° |
| 2026-04-22 20:30 | 68.69873 | 32.99646 | 4968 ft | 233 kts | 317° |
| 2026-04-22 20:30 | 68.70946 | 32.96314 | 4742 ft | 232 kts | 316° |
| 2026-04-22 20:31 | 68.72008 | 32.92988 | 4531 ft | 231 kts | 316° |
| 2026-04-22 20:31 | 68.73062 | 32.89651 | 4302 ft | 230 kts | 316° |
| 2026-04-22 20:31 | 68.74109 | 32.86328 | 4122 ft | 228 kts | 316° |
| 2026-04-22 20:31 | 68.75081 | 32.82854 | 3994 ft | 235 kts | 300° |
| 2026-04-22 20:32 | 68.75228 | 32.78301 | 4015 ft | 254 kts | 264° |
| 2026-04-22 20:32 | 68.74312 | 32.73988 | 3988 ft | 274 kts | 229° |
| 2026-04-22 20:32 | 68.72727 | 32.70908 | 3833 ft | 282 kts | 216° |
| 2026-04-22 20:32 | 68.71060 | 32.68182 | 3697 ft | 281 kts | 216° |
| 2026-04-22 20:33 | 68.69393 | 32.65359 | 3602 ft | 280 kts | 217° |
| 2026-04-22 20:33 | 68.67603 | 32.63275 | 3599 ft | 285 kts | 189° |
| 2026-04-22 20:33 | 68.65709 | 32.63998 | 3596 ft | 270 kts | 150° |
| 2026-04-22 20:33 | 68.64218 | 32.66780 | 3595 ft | 253 kts | 136° |
| 2026-04-22 20:34 | 68.62880 | 32.69733 | 3581 ft | 244 kts | 137° |
| 2026-04-22 20:34 | 68.61523 | 32.72591 | 3589 ft | 247 kts | 139° |
| 2026-04-22 20:34 | 68.60149 | 32.75406 | 3605 ft | 244 kts | 131° |
| 2026-04-22 20:34 | 68.59346 | 32.79093 | 3594 ft | 220 kts | 89° |
| 2026-04-22 20:35 | 68.59571 | 32.82896 | 3582 ft | 198 kts | 54° |
| 2026-04-22 20:35 | 68.60272 | 32.86175 | 3270 ft | 202 kts | 49° |
| 2026-04-22 20:35 | 68.61041 | 32.89443 | 2797 ft | 204 kts | 49° |
| 2026-04-22 20:35 | 68.61785 | 32.92620 | 2667 ft | 195 kts | 48° |
| 2026-04-22 20:36 | 68.62517 | 32.95664 | 2596 ft | 185 kts | 47° |
| 2026-04-22 20:36 | 68.63236 | 32.98570 | 2587 ft | 181 kts | 38° |
| 2026-04-22 20:36 | 68.64263 | 32.99753 | 2627 ft | 157 kts | 348° |
| 2026-04-22 20:36 | 68.65289 | 32.98569 | 2649 ft | 164 kts | 336° |
| 2026-04-22 20:37 | 68.66263 | 32.97021 | 2617 ft | 158 kts | 330° |
| 2026-04-22 20:37 | 68.67139 | 32.95413 | 2600 ft | 147 kts | 330° |
| 2026-04-22 20:37 | 68.67982 | 32.93873 | 2502 ft | 148 kts | 330° |
| 2026-04-22 20:37 | 68.68810 | 32.92351 | 2265 ft | 140 kts | 329° |
| 2026-04-22 20:38 | 68.69592 | 32.90921 | 2064 ft | 130 kts | 329° |
| 2026-04-22 20:38 | 68.70344 | 32.89548 | 1891 ft | 129 kts | 329° |
| 2026-04-22 20:38 | 68.71083 | 32.88197 | 1718 ft | 127 kts | 328° |
| 2026-04-22 20:38 | 68.71815 | 32.86847 | 1560 ft | 127 kts | 328° |
| 2026-04-22 20:39 | 68.72550 | 32.85494 | 1395 ft | 128 kts | 329° |
| 2026-04-22 20:39 | 68.73292 | 32.84129 | 1232 ft | 128 kts | 328° |
| 2026-04-22 20:39 | 68.74038 | 32.82755 | 1054 ft | 128 kts | 326° |
| 2026-04-22 20:39 | 68.74801 | 32.81350 | 875 ft | 132 kts | 326° |
| 2026-04-22 20:40 | 68.75575 | 32.79974 | 718 ft | 137 kts | 328° |
| 2026-04-22 20:40 | 68.76372 | 32.78533 | 512 ft | 137 kts | 324° |
| 2026-04-22 20:40 | 68.77178 | 32.77044 | 313 ft | 141 kts | 325° |
| 2026-04-22 20:40 | 68.77912 | 32.75680 | 274 ft | 98 kts | 326° |
| 2026-04-22 20:41 | 68.78214 | 32.75125 | 270 ft | 19 kts | 326° |
| 2026-04-22 20:41 | 68.78292 | 32.75079 | 269 ft | 9 kts | 32° |
| 2026-04-22 20:41 | 68.78330 | 32.75221 | 268 ft | 9 kts | 56° |
| 2026-04-22 20:41 | 68.78364 | 32.75362 | 268 ft | 8 kts | 56° |
| 2026-04-22 20:42 | 68.78396 | 32.75485 | 268 ft | 9 kts | 48° |
| 2026-04-22 20:42 | 68.78433 | 32.75490 | 271 ft | 4 kts | 336° |
| 2026-04-22 20:42 | 68.78450 | 32.75464 | 267 ft | 4 kts | 329° |
| 2026-04-22 20:42 | 68.78462 | 32.75429 | 267 ft | 2 kts | 302° |
| 2026-04-22 20:43 | 68.78461 | 32.75382 | 267 ft | 4 kts | 258° |
| 2026-04-22 20:43 | 68.78445 | 32.75330 | 267 ft | 0 kts | 204° |
| 2026-04-22 20:43 | 68.78437 | 32.75336 | 267 ft | 4 kts | 172° |
| 2026-04-22 20:43 | 68.78426 | 32.75348 | 270 ft | 0 kts | 155° |